Time;durP1;ratioP1;P1;durP2;ratioP2;P2;SDS_P1;SDS_P2;PMS_P1;PMS_P2;Temp;Humidity;BMP_temperature;BMP_pressure;BME280_temperature;BME280_humidity;BME280_pressure;Samples;Min_cycle;Max_cycle;Signal;HPM_P1;HPM_P2
2022/07/12 00:01:19;;;;;;;0.17;0.17;;;;;;;30.19;24.97;98455.94;5088176;28;20057;-79
2022/07/12 00:03:45;;;;;;;0.50;0.50;;;;;;;29.76;25.96;98453.22;5078701;28;20541;-79
2022/07/12 00:06:12;;;;;;;0.73;0.40;;;;;;;29.48;26.33;98457.91;5090674;28;20105;-79
2022/07/12 00:08:38;;;;;;;0.52;0.47;;;;;;;29.65;26.36;98455.63;5078618;28;20381;-79
2022/07/12 00:11:07;;;;;;;0.55;0.35;;;;;;;29.39;26.52;98449.34;5082497;28;20031;-79
2022/07/12 00:13:33;;;;;;;0.63;0.30;;;;;;;29.32;26.74;98450.41;5086024;28;20046;-79
2022/07/12 00:15:59;;;;;;;0.40;0.28;;;;;;;29.33;26.79;98452.00;5085876;28;20383;-79
2022/07/12 00:18:25;;;;;;;0.68;0.50;;;;;;;29.55;26.60;98451.97;5084158;28;20042;-79
2022/07/12 00:20:52;;;;;;;1.85;0.50;;;;;;;29.48;26.78;98452.25;5087108;28;20115;-79
2022/07/12 00:23:18;;;;;;;1.60;0.40;;;;;;;29.53;26.82;98448.03;5081876;28;20101;-79
2022/07/12 00:25:44;;;;;;;0.75;0.50;;;;;;;29.38;26.88;98456.28;5063413;28;20031;-79
2022/07/12 00:28:11;;;;;;;1.27;0.60;;;;;;;29.41;26.88;98455.34;5080242;28;20036;-78
2022/07/12 00:30:37;;;;;;;1.55;0.60;;;;;;;28.86;27.75;98454.09;5063193;28;20036;-79
2022/07/12 00:33:03;;;;;;;1.77;0.80;;;;;;;28.61;28.16;98452.13;5084720;28;20399;-78
2022/07/12 00:35:29;;;;;;;0.82;0.50;;;;;;;28.93;27.88;98456.69;5083086;28;20070;-79
2022/07/12 00:37:55;;;;;;;1.20;0.85;;;;;;;28.34;28.63;98456.69;5079760;28;20032;-79
2022/07/12 00:40:21;;;;;;;2.65;0.85;;;;;;;28.83;28.07;98460.66;5082650;28;20055;-78
2022/07/12 00:42:48;;;;;;;0.68;0.60;;;;;;;29.08;27.79;98463.38;5079511;28;20029;-79
2022/07/12 00:45:14;;;;;;;0.50;0.50;;;;;;;29.36;27.23;98459.56;5076799;28;20507;-79
2022/07/12 00:47:46;;;;;;;1.08;0.63;;;;;;;29.56;27.17;98466.91;5081448;28;20043;-78
2022/07/12 00:50:17;;;;;;;0.90;0.80;;;;;;;29.60;27.10;98470.38;5079351;28;20082;-79
2022/07/12 00:52:45;;;;;;;1.02;0.70;;;;;;;29.67;27.07;98470.13;5076847;28;20032;-79
2022/07/12 00:55:12;;;;;;;3.42;0.70;;;;;;;29.33;27.47;98462.53;5080963;28;20044;-79
2022/07/12 00:57:43;;;;;;;5.50;0.60;;;;;;;29.24;27.42;98468.13;5061741;28;20036;-78
2022/07/12 01:00:11;;;;;;;0.95;0.60;;;;;;;29.14;27.86;98466.44;5082338;28;20128;-78
2022/07/12 01:02:38;;;;;;;1.50;0.50;;;;;;;29.12;27.84;98469.72;5081217;28;20097;-79
2022/07/12 01:05:06;;;;;;;2.22;0.70;;;;;;;29.27;27.69;98467.97;5081383;28;20103;-78
2022/07/12 01:07:32;;;;;;;1.27;0.60;;;;;;;29.74;27.06;98467.00;5076523;28;20036;-78
2022/07/12 01:09:59;;;;;;;0.65;0.57;;;;;;;30.13;26.61;98460.59;5085951;28;20081;-78
2022/07/12 01:12:25;;;;;;;2.08;0.63;;;;;;;30.58;25.76;98468.50;5081667;28;20043;-79
2022/07/12 01:14:53;;;;;;;0.52;0.40;;;;;;;30.88;25.40;98464.78;5082964;28;20379;-79
2022/07/12 01:17:21;;;;;;;0.30;0.30;;;;;;;31.11;25.17;98477.56;5081501;28;20028;-79
2022/07/12 01:19:51;;;;;;;0.45;0.45;;;;;;;31.40;24.44;98478.66;5078758;28;20518;-79
2022/07/12 01:22:18;;;;;;;5.40;0.55;;;;;;;31.45;24.53;98474.41;5085270;28;20035;-79
2022/07/12 01:24:45;;;;;;;2.50;0.32;;;;;;;31.66;24.50;98467.75;5080787;28;20032;-79
2022/07/12 01:27:12;;;;;;;0.60;0.50;;;;;;;31.85;23.97;98474.16;5098586;28;20180;-78
2022/07/12 01:29:39;;;;;;;1.85;0.30;;;;;;;31.98;23.89;98471.94;5087568;28;20111;-79
2022/07/12 01:32:26;;;;;;;0.38;0.38;;;;;;;31.92;24.06;98466.09;5104186;27;20074;-79
2022/07/12 01:35:00;;;;;;;1.20;0.40;;;;;;;31.75;24.20;98461.25;5086155;28;20028;-79
2022/07/12 01:37:36;;;;;;;0.77;0.60;;;;;;;31.55;24.25;98461.78;5089565;28;20043;-79
2022/07/12 01:40:08;;;;;;;0.63;0.60;;;;;;;31.38;24.42;98460.50;5095445;28;20503;-79
2022/07/12 01:42:35;;;;;;;1.77;0.50;;;;;;;31.33;24.53;98461.16;5096468;28;20063;-79
2022/07/12 01:45:02;;;;;;;0.38;0.38;;;;;;;31.36;24.73;98457.38;5083421;28;20085;-79
2022/07/12 01:47:31;;;;;;;0.90;0.60;;;;;;;31.38;24.69;98452.78;5076983;28;20112;-79
2022/07/12 01:49:57;;;;;;;1.95;0.60;;;;;;;31.32;24.72;98456.75;5088796;28;20038;-79
2022/07/12 01:52:24;;;;;;;0.32;0.32;;;;;;;31.46;24.38;98449.66;5074588;28;20034;-79
2022/07/12 01:54:51;;;;;;;0.40;0.40;;;;;;;31.34;24.69;98448.53;5095762;28;20492;-79
2022/07/12 01:57:18;;;;;;;0.55;0.55;;;;;;;31.18;25.02;98451.72;5096153;28;20051;-79
2022/07/12 01:59:45;;;;;;;0.88;0.57;;;;;;;31.20;25.09;98449.19;5103279;28;20048;-79
2022/07/12 02:02:12;;;;;;;0.47;0.40;;;;;;;31.23;25.14;98445.38;5102973;28;20047;-79
2022/07/12 02:04:38;;;;;;;0.30;0.30;;;;;;;31.38;24.81;98452.00;5081184;28;20137;-79
2022/07/12 02:07:05;;;;;;;1.30;0.80;;;;;;;31.52;24.60;98445.69;5081078;28;20065;-79
2022/07/12 02:09:32;;;;;;;0.85;0.57;;;;;;;31.57;24.79;98449.94;5084989;28;20040;-79
2022/07/12 02:11:59;;;;;;;1.00;0.50;;;;;;;31.25;25.09;98445.72;5083867;28;20029;-79
2022/07/12 02:14:26;;;;;;;0.40;0.40;;;;;;;31.01;25.32;98445.56;5075817;28;20040;-79
2022/07/12 02:16:52;;;;;;;0.82;0.57;;;;;;;30.98;25.81;98452.19;5101348;28;20471;-79
2022/07/12 02:19:19;;;;;;;1.00;0.47;;;;;;;31.09;25.33;98457.38;5109159;28;20043;-79
2022/07/12 02:21:45;;;;;;;0.73;0.60;;;;;;;30.91;25.66;98446.81;5090692;28;20024;-79
2022/07/12 02:24:11;;;;;;;0.40;0.40;;;;;;;31.06;25.48;98458.34;5080637;28;20032;-78
2022/07/12 02:26:37;;;;;;;0.40;0.40;;;;;;;30.80;25.97;98454.19;5084369;28;20040;-78
2022/07/12 02:29:04;;;;;;;2.35;0.75;;;;;;;30.64;26.09;98464.56;5083824;28;20036;-78
2022/07/12 02:31:31;;;;;;;1.33;0.63;;;;;;;30.65;26.22;98459.69;5078126;28;20499;-79
2022/07/12 02:33:57;;;;;;;0.85;0.60;;;;;;;30.94;25.85;98462.91;5081991;28;20059;-78
2022/07/12 02:36:24;;;;;;;0.60;0.50;;;;;;;30.95;25.97;98458.78;5077217;28;20040;-78
2022/07/12 02:38:50;;;;;;;1.38;0.40;;;;;;;31.05;25.81;98456.75;5058513;28;20458;-78
2022/07/12 02:41:16;;;;;;;0.60;0.50;;;;;;;30.92;25.93;98456.13;5065596;28;20043;-78
2022/07/12 02:43:43;;;;;;;1.85;0.65;;;;;;;30.86;25.70;98458.75;5068379;28;20033;-78
2022/07/12 02:46:11;;;;;;;1.00;0.63;;;;;;;31.08;25.69;98456.59;5065986;28;20602;-79
2022/07/12 02:48:38;;;;;;;0.80;0.73;;;;;;;30.92;25.51;98456.13;5071225;28;20044;-78
2022/07/12 02:51:05;;;;;;;1.83;0.77;;;;;;;30.44;26.39;98454.91;5074991;28;20524;-78
2022/07/12 02:53:33;;;;;;;0.80;0.73;;;;;;;30.33;26.89;98463.88;5092896;28;20028;-78
2022/07/12 02:56:00;;;;;;;1.73;0.75;;;;;;;30.32;26.65;98458.63;5084756;28;20080;-79
2022/07/12 02:58:26;;;;;;;2.60;0.90;;;;;;;30.41;26.59;98465.13;5084460;28;20126;-79
2022/07/12 03:00:52;;;;;;;1.92;0.52;;;;;;;30.32;27.13;98459.41;5073423;28;20028;-78
2022/07/12 03:03:18;;;;;;;2.25;0.88;;;;;;;30.12;26.86;98463.91;5068721;28;20554;-79
2022/07/12 03:05:45;;;;;;;1.13;0.68;;;;;;;30.55;26.66;98461.72;5066932;28;20107;-79
2022/07/12 03:08:12;;;;;;;1.75;0.60;;;;;;;30.47;26.39;98459.66;5063201;28;20429;-79
2022/07/12 03:10:39;;;;;;;1.02;0.70;;;;;;;30.51;26.46;98460.28;5064770;28;20059;-78
2022/07/12 03:13:06;;;;;;;1.40;0.70;;;;;;;29.86;27.41;98454.84;5068879;28;20024;-78
2022/07/12 03:15:33;;;;;;;1.38;0.70;;;;;;;29.62;27.75;98454.53;5074405;28;20037;-79
2022/07/12 03:18:01;;;;;;;2.63;0.70;;;;;;;29.24;28.06;98451.91;5073094;28;20036;-79
2022/07/12 03:20:28;;;;;;;2.88;1.05;;;;;;;28.69;29.11;98461.97;5063909;28;20090;-79
2022/07/12 03:22:54;;;;;;;0.90;0.80;;;;;;;28.76;29.20;98460.91;5062133;28;20025;-78
2022/07/12 03:25:21;;;;;;;1.90;0.90;;;;;;;29.00;28.95;98469.78;5061255;28;20040;-78
2022/07/12 03:27:48;;;;;;;2.25;1.00;;;;;;;29.23;28.39;98464.50;5060935;28;20440;-78
2022/07/12 03:30:14;;;;;;;1.73;0.90;;;;;;;29.34;28.19;98469.75;5062825;28;20047;-78
2022/07/12 03:32:41;;;;;;;1.95;0.77;;;;;;;29.46;28.04;98468.88;5066265;28;20118;-78
2022/07/12 03:35:07;;;;;;;1.02;0.93;;;;;;;29.20;28.31;98468.25;5064856;28;20039;-78
2022/07/12 03:38:00;;;;;;;1.48;1.20;;;;;;;28.90;28.92;98471.72;5063360;28;20103;-78
2022/07/12 03:40:26;;;;;;;0.85;0.77;;;;;;;28.79;29.10;98476.97;5061681;28;20044;-78
2022/07/12 03:42:53;;;;;;;2.60;1.00;;;;;;;29.11;28.72;98475.81;5062854;28;20025;-78
2022/07/12 03:45:19;;;;;;;2.40;0.73;;;;;;;29.52;28.18;98475.56;5065586;28;20036;-79
2022/07/12 03:47:45;;;;;;;1.65;0.52;;;;;;;29.71;27.75;98479.28;5059466;28;20025;-78
2022/07/12 03:50:13;;;;;;;3.47;1.00;;;;;;;29.85;27.54;98478.75;5061091;28;20039;-78
2022/07/12 03:52:41;;;;;;;0.95;0.70;;;;;;;29.86;27.47;98471.81;5060461;28;20029;-79
2022/07/12 03:55:08;;;;;;;1.65;0.75;;;;;;;29.73;27.83;98476.78;5059863;28;20099;-79
2022/07/12 03:57:34;;;;;;;0.80;0.60;;;;;;;29.54;28.09;98472.25;5056863;28;20049;-78
2022/07/12 04:00:01;;;;;;;1.33;0.60;;;;;;;29.88;27.67;98469.31;5042637;28;20052;-78
2022/07/12 04:02:27;;;;;;;0.70;0.60;;;;;;;29.72;27.78;98470.31;5061260;28;20040;-78
2022/07/12 04:04:53;;;;;;;0.98;0.73;;;;;;;29.80;27.71;98470.88;5060131;28;20387;-78
2022/07/12 04:07:20;;;;;;;1.67;0.80;;;;;;;29.73;27.93;98462.63;5060964;28;20036;-78
2022/07/12 04:09:46;;;;;;;0.52;0.50;;;;;;;30.30;27.24;98458.31;5060568;28;20056;-78
2022/07/12 04:12:12;;;;;;;1.00;0.60;;;;;;;30.69;26.64;98460.34;5060261;28;20033;-79
2022/07/12 04:14:38;;;;;;;0.60;0.60;;;;;;;30.78;26.51;98458.28;5082397;28;20029;-79
2022/07/12 04:17:05;;;;;;;2.75;0.50;;;;;;;30.43;26.86;98464.69;5061145;28;20043;-79
2022/07/12 04:19:32;;;;;;;0.70;0.40;;;;;;;30.33;27.11;98463.06;5070158;28;20036;-78
2022/07/12 04:21:59;;;;;;;1.20;0.40;;;;;;;30.43;26.95;98465.47;5064308;28;20043;-79
2022/07/12 04:24:25;;;;;;;1.00;0.77;;;;;;;30.57;26.81;98466.94;5068182;28;20037;-79
2022/07/12 04:26:51;;;;;;;1.27;0.50;;;;;;;30.44;27.00;98469.88;5069888;28;20043;-78
2022/07/12 04:29:18;;;;;;;1.67;0.70;;;;;;;30.53;26.81;98471.94;5068568;28;20572;-79
2022/07/12 04:31:45;;;;;;;0.70;0.47;;;;;;;30.22;27.31;98465.53;5066783;28;20369;-78
2022/07/12 04:34:11;;;;;;;1.75;0.70;;;;;;;30.17;27.30;98461.28;5059463;28;20066;-78
2022/07/12 04:36:37;;;;;;;0.50;0.50;;;;;;;30.15;27.66;98468.66;5054969;28;20029;-78
2022/07/12 04:39:03;;;;;;;0.50;0.50;;;;;;;29.51;28.33;98470.34;5058969;28;20067;-77
2022/07/12 04:41:30;;;;;;;2.42;0.70;;;;;;;30.02;28.34;98461.06;5057385;28;20112;-79
2022/07/12 04:43:56;;;;;;;1.35;0.90;;;;;;;29.97;28.07;98460.84;5059845;28;20108;-79
2022/07/12 04:46:22;;;;;;;0.70;0.63;;;;;;;29.74;28.81;98467.00;5057052;28;20043;-79
2022/07/12 04:48:48;;;;;;;1.55;0.60;;;;;;;30.02;28.48;98458.22;5044612;28;20500;-79
2022/07/12 04:51:16;;;;;;;2.05;0.65;;;;;;;30.05;28.22;98459.34;5062827;28;20032;-79
2022/07/12 04:53:42;;;;;;;0.70;0.70;;;;;;;29.63;29.06;98460.97;5056283;28;20028;-79
2022/07/12 04:56:08;;;;;;;6.78;2.25;;;;;;;29.66;28.77;98465.72;5056954;28;20432;-79
2022/07/12 04:58:35;;;;;;;1.58;0.80;;;;;;;29.45;29.01;98472.19;5069327;28;20047;-79
2022/07/12 05:01:01;;;;;;;2.00;0.82;;;;;;;29.63;28.89;98466.63;5093519;27;20070;-79
2022/07/12 05:03:28;;;;;;;1.23;0.70;;;;;;;29.16;29.68;98470.38;5077723;28;20044;-79
2022/07/12 05:05:55;;;;;;;0.65;0.50;;;;;;;29.57;29.56;98474.16;5076058;28;20059;-77
2022/07/12 05:08:21;;;;;;;1.20;0.73;;;;;;;29.80;29.79;98468.03;5082512;28;20036;-76
2022/07/12 05:10:48;;;;;;;0.80;0.68;;;;;;;30.03;28.94;98465.47;5086823;28;20032;-76
2022/07/12 05:13:14;;;;;;;1.30;0.63;;;;;;;30.83;29.19;98456.84;5083427;28;20044;-78
2022/07/12 05:15:40;;;;;;;0.75;0.70;;;;;;;30.62;28.12;98450.06;5076136;28;20412;-78
2022/07/12 05:18:06;;;;;;;0.95;0.65;;;;;;;30.74;28.21;98460.47;5076775;28;20036;-78
2022/07/12 05:20:33;;;;;;;1.05;0.60;;;;;;;31.28;27.75;98462.56;5074266;28;20031;-79
2022/07/12 05:22:59;;;;;;;0.47;0.40;;;;;;;31.75;27.61;98459.19;5083539;28;20040;-79
2022/07/12 05:25:25;;;;;;;1.80;0.55;;;;;;;31.54;27.05;98454.53;5084361;28;20443;-79
2022/07/12 05:27:51;;;;;;;0.95;0.50;;;;;;;31.98;27.29;98464.19;5094739;28;20054;-79
2022/07/12 05:30:17;;;;;;;0.98;0.50;;;;;;;31.62;26.57;98461.47;5091545;28;20598;-79
2022/07/12 05:32:44;;;;;;;0.90;0.43;;;;;;;31.48;26.83;98461.31;5085939;28;20040;-79
2022/07/12 05:35:10;;;;;;;0.90;0.52;;;;;;;30.56;28.77;98462.50;5092004;28;20023;-79
2022/07/12 05:37:36;;;;;;;0.70;0.60;;;;;;;30.61;28.18;98444.88;5081608;28;20024;-79
2022/07/12 05:40:02;;;;;;;2.35;0.43;;;;;;;31.11;27.38;98452.81;5075268;28;20067;-79
2022/07/12 05:42:28;;;;;;;1.13;0.60;;;;;;;31.68;26.83;98453.84;5094102;28;20034;-79
2022/07/12 05:44:54;;;;;;;0.65;0.38;;;;;;;31.66;27.27;98458.44;5095315;28;20475;-79
2022/07/12 05:47:20;;;;;;;0.82;0.50;;;;;;;31.63;26.87;98450.88;5081066;28;20036;-76
2022/07/12 05:49:46;;;;;;;0.50;0.50;;;;;;;32.17;26.73;98453.53;5082983;28;20040;-77
2022/07/12 05:54:57;;;;;;;1.05;0.60;;;;;;;32.28;25.94;98453.81;5078070;28;20074;-77
2022/07/12 05:57:23;;;;;;;0.50;0.45;;;;;;;32.08;26.53;98460.06;5082555;28;20036;-76
2022/07/12 05:59:49;;;;;;;1.38;0.60;;;;;;;31.84;26.58;98464.06;5074571;28;20056;-76
2022/07/12 06:02:15;;;;;;;0.45;0.40;;;;;;;31.67;26.64;98445.84;5079624;28;20101;-77
2022/07/12 06:04:41;;;;;;;1.83;0.40;;;;;;;32.01;26.26;98454.72;5068697;28;20072;-77
2022/07/12 06:07:08;;;;;;;1.98;0.55;;;;;;;31.40;26.89;98449.47;5056906;28;20033;-77
2022/07/12 06:09:34;;;;;;;2.60;0.50;;;;;;;31.74;26.86;98451.16;5063359;28;20104;-76
2022/07/12 06:12:00;;;;;;;0.45;0.40;;;;;;;32.21;26.59;98450.53;5066162;28;20033;-77
2022/07/12 06:14:26;;;;;;;1.90;0.68;;;;;;;32.73;25.61;98449.94;5052439;28;20452;-78
2022/07/12 06:16:52;;;;;;;0.73;0.70;;;;;;;33.24;25.13;98444.78;5055948;28;20050;-77
2022/07/12 06:19:18;;;;;;;0.60;0.50;;;;;;;32.86;25.56;98447.59;5078003;28;20075;-77
2022/07/12 06:21:44;;;;;;;0.88;0.57;;;;;;;33.66;25.46;98449.47;5069470;28;20037;-77
2022/07/12 06:24:11;;;;;;;0.82;0.52;;;;;;;33.31;24.97;98446.47;5070665;28;20039;-78
2022/07/12 06:26:37;;;;;;;0.68;0.40;;;;;;;33.73;25.13;98443.38;5069321;28;20129;-78
2022/07/12 06:29:03;;;;;;;1.23;0.50;;;;;;;33.38;25.25;98444.03;5071150;28;20131;-78
2022/07/12 06:31:29;;;;;;;0.43;0.30;;;;;;;33.31;25.54;98444.41;5065113;28;20033;-78
2022/07/12 06:33:55;;;;;;;1.10;0.45;;;;;;;33.58;25.16;98446.25;5067868;28;20025;-78
2022/07/12 06:36:21;;;;;;;3.70;0.50;;;;;;;33.07;24.47;98449.38;5072040;28;20400;-77
2022/07/12 06:38:47;;;;;;;0.50;0.40;;;;;;;32.51;25.55;98446.63;5066388;28;20025;-78
2022/07/12 06:41:13;;;;;;;0.50;0.47;;;;;;;31.68;26.46;98451.03;5067122;28;20071;-78
2022/07/12 06:43:39;;;;;;;0.90;0.50;;;;;;;31.42;26.29;98447.75;5078799;28;20437;-78
2022/07/12 06:46:05;;;;;;;1.48;0.40;;;;;;;30.99;27.36;98441.63;5082053;28;20085;-78
2022/07/12 06:48:31;;;;;;;1.50;0.60;;;;;;;30.90;26.65;98430.28;5069644;28;20052;-79
2022/07/12 06:50:57;;;;;;;2.08;0.57;;;;;;;30.40;27.86;98446.56;5071392;28;20032;-79
2022/07/12 06:53:24;;;;;;;1.98;0.30;;;;;;;31.06;28.20;98439.28;5065066;28;20029;-80
2022/07/12 06:55:50;;;;;;;2.60;0.52;;;;;;;31.33;26.17;98435.59;5069777;28;20476;-79
2022/07/12 06:58:19;;;;;;;0.75;0.50;;;;;;;31.70;26.96;98436.34;5068423;28;20039;-80
2022/07/12 07:00:45;;;;;;;0.65;0.40;;;;;;;31.04;27.07;98450.28;5078550;28;20040;-79
2022/07/12 07:03:11;;;;;;;1.13;0.40;;;;;;;31.30;26.79;98459.25;5088295;28;20487;-79
2022/07/12 07:05:37;;;;;;;1.15;0.50;;;;;;;30.90;27.40;98450.16;5090217;28;20028;-79
2022/07/12 07:08:04;;;;;;;0.82;0.65;;;;;;;30.86;27.76;98455.94;5090076;28;20095;-79
2022/07/12 07:10:30;;;;;;;0.85;0.45;;;;;;;31.11;26.67;98457.72;5091867;28;20059;-79
2022/07/12 07:12:56;;;;;;;0.85;0.40;;;;;;;31.49;26.85;98463.69;5097530;28;20416;-79
2022/07/12 07:15:22;;;;;;;0.52;0.30;;;;;;;31.95;26.49;98467.19;5082086;28;20032;-79
2022/07/12 07:17:50;;;;;;;0.52;0.30;;;;;;;32.24;26.27;98469.47;5092595;28;20040;-78
2022/07/12 07:20:16;;;;;;;3.47;0.50;;;;;;;32.79;25.09;98467.13;5090829;28;20115;-79
2022/07/12 07:22:42;;;;;;;2.67;0.40;;;;;;;32.49;25.54;98461.28;5090500;28;20032;-79
2022/07/12 07:25:09;;;;;;;2.15;0.38;;;;;;;32.17;26.29;98464.13;5090645;28;20065;-78
2022/07/12 07:27:35;;;;;;;0.30;0.30;;;;;;;32.62;25.84;98472.44;5104545;27;20511;-79
2022/07/12 07:32:46;;;;;;;0.30;0.30;;;;;;;32.90;25.25;98473.03;5084272;28;20039;-81
2022/07/12 07:35:12;;;;;;;0.32;0.32;;;;;;;32.67;24.83;98474.63;5089683;28;20045;-80
2022/07/12 07:37:39;;;;;;;5.32;0.82;;;;;;;32.87;25.29;98471.94;5089717;28;20028;-81
2022/07/12 07:40:05;;;;;;;0.50;0.50;;;;;;;32.06;25.67;98476.03;5091673;28;20047;-80
2022/07/12 07:42:31;;;;;;;0.50;0.38;;;;;;;32.00;26.39;98475.06;5090897;28;20038;-80
2022/07/12 07:44:58;;;;;;;0.60;0.40;;;;;;;32.60;25.58;98472.16;5092331;28;20040;-80
2022/07/12 07:47:24;;;;;;;0.55;0.30;;;;;;;32.37;25.25;98470.81;5090515;28;20024;-81
2022/07/12 07:49:50;;;;;;;1.85;0.80;;;;;;;31.78;25.75;98471.66;5090458;28;20047;-79
2022/07/12 07:52:16;;;;;;;1.02;0.68;;;;;;;31.43;25.83;98474.09;5089394;28;20392;-81
2022/07/12 07:54:42;;;;;;;1.10;0.40;;;;;;;31.56;27.11;98474.69;5090828;28;20040;-81
2022/07/12 07:57:09;;;;;;;0.47;0.40;;;;;;;32.13;26.00;98475.69;5089835;28;20395;-81
2022/07/12 07:59:36;;;;;;;0.90;0.43;;;;;;;32.08;26.96;98485.63;5092177;28;20373;-81
2022/07/12 08:02:02;;;;;;;0.47;0.38;;;;;;;32.77;25.59;98481.81;5087356;28;20055;-81
2022/07/12 08:04:29;;;;;;;0.65;0.38;;;;;;;33.41;24.83;98470.75;5083272;28;20035;-80
2022/07/12 08:06:56;;;;;;;0.63;0.43;;;;;;;33.09;23.77;98468.81;5089747;28;20073;-80
2022/07/12 08:09:22;;;;;;;0.70;0.47;;;;;;;33.24;24.98;98470.41;5092078;28;20028;-80
2022/07/12 08:11:48;;;;;;;0.50;0.45;;;;;;;32.85;24.70;98476.56;5091577;28;20027;-80
2022/07/12 08:14:14;;;;;;;0.93;0.30;;;;;;;32.98;24.94;98465.72;5092023;28;20070;-80
2022/07/12 08:16:40;;;;;;;0.40;0.30;;;;;;;33.65;23.96;98465.00;5102254;27;20433;-79
2022/07/12 08:19:07;;;;;;;0.22;0.20;;;;;;;32.54;25.17;98485.44;5095157;28;20040;-79
2022/07/12 08:21:33;;;;;;;0.20;0.20;;;;;;;32.79;25.72;98473.59;5088355;28;20023;-79
2022/07/12 08:23:59;;;;;;;1.02;0.40;;;;;;;33.05;25.30;98474.69;5095909;28;20031;-79
2022/07/12 08:26:25;;;;;;;0.65;0.40;;;;;;;32.39;24.98;98482.50;5093631;28;20035;-79
2022/07/12 08:28:52;;;;;;;0.35;0.30;;;;;;;33.12;25.14;98487.75;5093973;28;20134;-79
2022/07/12 08:31:18;;;;;;;2.45;0.40;;;;;;;33.01;25.38;98484.66;5093489;28;20399;-79
2022/07/12 08:33:44;;;;;;;0.47;0.35;;;;;;;32.69;25.23;98474.94;5084630;28;20037;-79
2022/07/12 08:36:10;;;;;;;0.52;0.20;;;;;;;32.65;25.67;98472.25;5066990;28;20175;-79
2022/07/12 08:38:38;;;;;;;0.50;0.40;;;;;;;32.38;25.84;98475.22;5083636;28;20090;-78
2022/07/12 08:41:05;;;;;;;0.85;0.40;;;;;;;32.39;27.01;98476.81;5083987;28;20035;-79
2022/07/12 08:43:35;;;;;;;1.73;0.90;;;;;;;32.36;25.67;98477.78;5080989;28;20028;-79
2022/07/12 08:46:10;;;;;;;3.65;0.43;;;;;;;32.36;25.28;98468.44;5082879;28;20392;-78
2022/07/12 08:48:37;;;;;;;0.55;0.30;;;;;;;33.00;24.39;98466.03;5089037;28;20047;-78
2022/07/12 08:51:08;;;;;;;0.52;0.30;;;;;;;33.50;23.81;98458.47;5080217;28;20024;-78
2022/07/12 08:53:35;;;;;;;2.75;0.30;;;;;;;33.29;24.91;98457.56;5074287;28;22920;-78
2022/07/12 08:56:03;;;;;;;0.90;0.40;;;;;;;33.53;23.85;98458.31;5077939;28;20029;-78
2022/07/12 08:58:29;;;;;;;2.58;0.30;;;;;;;33.14;23.16;98443.28;5087694;28;20434;-78
2022/07/12 09:00:58;;;;;;;1.17;0.35;;;;;;;32.48;24.84;98447.53;5090090;28;20032;-78
2022/07/12 09:03:24;;;;;;;1.02;0.40;;;;;;;32.99;23.46;98448.16;5077593;28;20488;-78
2022/07/12 09:05:55;;;;;;;1.45;0.30;;;;;;;33.28;24.30;98453.16;5079096;28;20107;-78
2022/07/12 09:08:28;;;;;;;0.47;0.30;;;;;;;33.14;23.89;98434.75;5082736;28;20042;-78
2022/07/12 09:10:57;;;;;;;1.60;0.30;;;;;;;32.50;23.23;98439.34;5090412;28;20126;-78
2022/07/12 09:13:50;;;;;;;4.13;0.40;;;;;;;31.59;25.35;98453.88;5074816;28;20028;-78
2022/07/12 09:16:19;;;;;;;0.68;0.38;;;;;;;31.00;28.56;98477.22;5079075;28;20082;-78
2022/07/12 09:18:46;;;;;;;1.05;0.30;;;;;;;30.66;28.23;98464.91;5078966;28;20392;-77
2022/07/12 09:21:25;;;;;;;0.50;0.30;;;;;;;31.37;28.33;98468.25;5077715;28;20044;-77
2022/07/12 09:23:56;;;;;;;0.88;0.22;;;;;;;31.50;27.73;98472.97;5078468;28;20024;-77
2022/07/12 09:26:23;;;;;;;;;;;;;;;31.23;28.31;98479.44;5078875;28;20078;-77
2022/07/12 09:29:04;;;;;;;0.20;0.20;;;;;;;31.82;28.06;98472.28;5077109;28;20383;-78
2022/07/12 09:37:20;;;;;;;0.10;0.10;;;;;;;30.83;28.38;98505.06;5078277;28;20137;-77
2022/07/12 09:39:47;;;;;;;0.22;0.20;;;;;;;30.45;29.55;98513.19;5084711;28;20062;-78
2022/07/12 09:42:14;;;;;;;0.10;0.10;;;;;;;30.26;30.05;98525.66;5084664;28;20059;-78
2022/07/12 09:44:41;;;;;;;0.75;0.25;;;;;;;29.97;30.56;98538.13;5088551;28;20028;-78
2022/07/12 09:47:13;;;;;;;0.30;0.30;;;;;;;30.16;30.07;98547.50;5082595;28;20024;-78
2022/07/12 09:49:39;;;;;;;0.10;0.10;;;;;;;30.00;30.09;98536.41;5069868;28;20452;-78
2022/07/12 09:52:09;;;;;;;0.25;0.25;;;;;;;28.65;31.96;98534.78;5075460;28;20047;-78
2022/07/12 09:54:40;;;;;;;0.43;0.20;;;;;;;28.40;32.66;98531.91;5063432;28;20037;-78
2022/07/12 09:57:20;;;;;;;0.75;0.20;;;;;;;27.69;33.63;98524.84;5078573;28;20373;-78
2022/07/12 09:59:49;;;;;;;0.80;0.65;;;;;;;27.98;34.14;98521.97;5064935;28;20097;-77
2022/07/12 10:02:16;;;;;;;0.10;0.10;;;;;;;29.17;32.62;98500.22;5078506;28;20463;-77
2022/07/12 10:04:42;;;;;;;0.20;0.10;;;;;;;29.51;32.39;98507.13;5080215;28;20043;-77
2022/07/12 10:07:13;;;;;;;0.30;0.20;;;;;;;29.60;31.98;98504.34;5084084;28;20028;-77
2022/07/12 10:09:41;;;;;;;3.00;0.25;;;;;;;30.04;31.36;98508.72;5086077;28;20037;-77
2022/07/12 10:12:10;;;;;;;0.55;0.20;;;;;;;30.53;31.02;98495.41;5079561;28;20377;-77
2022/07/12 10:14:38;;;;;;;0.28;0.28;;;;;;;30.62;31.37;98498.25;5082358;28;20035;-77
2022/07/12 10:17:09;;;;;;;0.20;0.10;;;;;;;31.46;31.18;98500.75;5086236;28;20032;-77
2022/07/12 10:19:36;;;;;;;0.20;0.20;;;;;;;31.72;29.76;98497.06;5087299;28;20028;-77
2022/07/12 10:22:04;;;;;;;0.15;0.15;;;;;;;32.63;29.03;98496.75;5085244;28;20036;-77
2022/07/12 10:24:32;;;;;;;0.30;0.30;;;;;;;31.26;29.96;98481.34;5081257;28;20039;-77
2022/07/12 10:27:20;;;;;;;0.30;0.15;;;;;;;32.13;29.51;98481.34;5092960;28;20058;-76
2022/07/12 10:29:48;;;;;;;0.25;0.25;;;;;;;31.94;28.92;98474.94;5085739;28;20083;-76
2022/07/12 10:32:26;;;;;;;0.30;0.30;;;;;;;31.90;30.02;98474.28;5087156;28;20032;-76
2022/07/12 10:34:59;;;;;;;0.43;0.22;;;;;;;32.65;30.27;98466.56;5091474;28;20097;-76
2022/07/12 10:37:25;;;;;;;1.58;0.20;;;;;;;32.92;28.38;98468.44;5090737;28;20031;-77
2022/07/12 10:40:10;;;;;;;0.32;0.30;;;;;;;33.21;29.41;98462.84;5085060;28;20032;-76
2022/07/12 10:42:36;;;;;;;0.40;0.40;;;;;;;33.39;28.99;98464.75;5088909;28;20518;-77
2022/07/12 10:45:14;;;;;;;0.50;0.40;;;;;;;33.72;26.96;98453.22;5085638;28;20032;-77
2022/07/12 10:48:01;;;;;;;2.05;0.45;;;;;;;32.86;26.93;98464.69;5086639;28;20040;-78
2022/07/12 10:50:45;;;;;;;1.02;0.43;;;;;;;32.45;27.05;98462.72;5085979;28;20035;-76
2022/07/12 10:53:40;;;;;;;1.15;0.40;;;;;;;32.41;29.47;98457.22;5093713;28;20107;-77
2022/07/12 10:56:11;;;;;;;0.55;0.45;;;;;;;32.85;28.96;98453.78;5077009;28;20077;-77
2022/07/12 10:58:41;;;;;;;0.63;0.40;;;;;;;32.67;27.79;98452.66;5071663;28;20068;-77
2022/07/12 11:01:19;;;;;;;0.50;0.40;;;;;;;33.61;27.71;98445.25;5059838;28;20611;-77
2022/07/12 11:03:49;;;;;;;1.73;0.40;;;;;;;32.81;29.41;98453.19;5062484;28;20115;-76
2022/07/12 11:06:21;;;;;;;0.90;0.40;;;;;;;31.48;30.46;98447.13;5058321;28;20890;-76
2022/07/12 11:09:00;;;;;;;1.65;0.35;;;;;;;31.44;31.65;98452.97;5062280;28;20115;-77
2022/07/12 11:11:31;;;;;;;2.35;0.50;;;;;;;30.90;30.19;98452.97;5061619;28;20489;-76
2022/07/12 11:13:59;;;;;;;1.75;0.40;;;;;;;32.48;26.75;98448.34;5059289;28;20044;-76
2022/07/12 11:16:26;;;;;;;2.17;0.40;;;;;;;31.38;28.94;98461.31;5064997;28;20111;-77
2022/07/12 11:18:53;;;;;;;0.95;0.47;;;;;;;31.04;32.87;98452.34;5057437;28;20032;-77
2022/07/12 11:21:21;;;;;;;2.55;0.40;;;;;;;31.00;28.82;98448.88;5063029;28;20115;-77
2022/07/12 11:23:48;;;;;;;0.82;0.50;;;;;;;31.27;27.86;98449.63;5079962;28;20035;-76
2022/07/12 11:26:14;;;;;;;0.63;0.40;;;;;;;31.03;32.30;98445.09;5071207;28;20036;-77
2022/07/12 11:28:42;;;;;;;1.17;0.40;;;;;;;30.97;28.12;98455.50;5076257;28;20036;-77
2022/07/12 11:31:13;;;;;;;1.05;0.45;;;;;;;31.07;27.65;98455.03;5067992;28;20032;-78
2022/07/12 11:33:47;;;;;;;0.70;0.50;;;;;;;31.93;26.41;98453.44;5059589;28;20024;-78
2022/07/12 11:36:14;;;;;;;0.90;0.40;;;;;;;32.15;26.97;98438.25;5072404;28;20044;-78
2022/07/12 11:38:42;;;;;;;0.63;0.50;;;;;;;31.25;26.94;98435.13;5071335;28;20041;-78
2022/07/12 11:41:10;;;;;;;1.17;0.50;;;;;;;31.27;28.10;98435.44;5076170;28;20029;-78
2022/07/12 11:43:38;;;;;;;5.85;0.35;;;;;;;30.57;28.65;98428.00;5080118;28;20040;-78
2022/07/12 11:46:05;;;;;;;0.28;0.28;;;;;;;30.97;28.82;98438.50;5069630;28;20029;-78
2022/07/12 11:48:35;;;;;;;2.45;0.75;;;;;;;31.43;27.34;98445.72;5065580;28;20025;-78